EST,Max TemperatureF,Mean TemperatureF,Min TemperatureF,Max Dew PointF,MeanDew PointF,Min DewpointF,Max Humidity, Mean Humidity, Min Humidity, Max Sea Level PressureIn, Mean Sea Level PressureIn, Min Sea Level PressureIn, Max VisibilityMiles, Mean VisibilityMiles, Min VisibilityMiles, Max Wind SpeedMPH, Mean Wind SpeedMPH, Max Gust SpeedMPH,PrecipitationIn, CloudCover, Events, WindDirDegrees
2013-2-1,33,26,18,25,6,-3,66,47,27,30.38,30.10,29.78,10,10,2,22,8,38,T,3,Snow,281
2013-2-2,34,25,16,25,15,2,96,66,35,30.38,30.18,30.00,10,8,2,17,5,23,T,4,Snow,197
2013-2-3,41,32,22,28,22,11,96,69,41,29.97,29.90,29.81,10,6,2,16,3,28,0.01,7,Snow,351
2013-2-4,37,29,21,19,13,7,63,49,35,30.10,29.99,29.90,10,10,10,16,6,24,0.00,1,,211
2013-2-5,57,43,29,30,26,19,64,50,35,29.91,29.87,29.81,10,10,10,14,7,22,0.00,3,,212
2013-2-6,53,41,28,30,25,21,85,57,29,30.34,30.15,29.92,10,10,9,14,5,16,0.00,1,,342
2013-2-7,39,35,30,26,23,21,78,63,48,30.42,30.32,30.19,10,10,10,10,3,30,T,7,,47
2013-2-8,50,41,32,38,31,20,100,74,48,30.14,29.92,29.76,10,5,1,17,5,29,0.27,6,Snow,347
2013-2-9,47,37,27,19,11,5,49,34,19,30.37,30.20,29.97,10,10,10,21,8,37,0.00,0,,360
2013-2-10,44,32,20,29,15,10,71,50,29,30.49,30.37,30.22,10,10,10,15,4,18,0.02,1,Rain,182
2013-2-11,59,47,34,49,37,15,100,60,19,30.21,29.96,29.76,10,7,2,18,9,33,0.04,4,Rain,185
2013-2-12,60,50,40,25,21,17,43,32,20,29.97,29.91,29.83,10,10,10,23,7,41,0.00,0,,206
2013-2-13,46,40,33,36,32,23,100,73,45,29.91,29.73,29.64,10,5,2,13,4,15,0.05,7,Rain,33
2013-2-14,51,39,26,31,25,20,100,65,29,30.02,29.95,29.81,10,9,2,14,4,17,0.00,0,,204
2013-2-15,60,44,27,30,26,23,78,57,35,30.04,30.01,29.99,10,10,10,16,6,23,T,0,,209
2013-2-16,41,35,29,22,22,22,54,54,54,29.85,29.85,29.85,10,10,10,13,5,21,0.00,8,,180
2013-2-17,30,26,21,,,,,,,,,,,,,18,8,32,0.00,,,
2013-2-18,46,32,17,19,19,19,48,48,48,30.17,30.17,30.17,10,10,10,16,5,21,0.00,0,,170
2013-2-19,47,41,34,39,31,13,89,61,32,29.97,29.84,29.74,10,10,9,20,11,24,0.02,5,Rain,207
2013-2-20,45,37,28,13,10,8,43,35,27,30.14,30.00,29.88,10,10,10,12,6,18,0.00,0,,320
2013-2-21,45,35,24,15,12,10,55,41,27,30.31,30.20,30.13,10,10,10,12,5,18,0.00,0,,358
2013-2-22,37,34,30,26,21,15,75,62,49,30.36,30.28,30.19,10,9,7,12,3,14,T,7,Rain-Snow,135
2013-2-23,52,43,33,39,32,26,92,76,59,30.17,29.97,29.82,10,9,0,5,1,25,T,6,Fog-Rain,52
2013-2-24,57,46,35,39,30,17,100,62,24,30.10,29.90,29.80,10,6,0,14,5,28,0.00,2,Fog,346
2013-2-25,44,35,25,18,16,13,63,48,33,30.23,30.17,30.11,10,10,7,16,3,22,0.00,0,,12
2013-2-26,42,34,26,41,31,18,100,81,61,30.22,29.89,29.60,10,6,1,20,7,24,0.97,7,Rain,33
2013-2-27,55,46,36,41,35,28,100,69,38,29.70,29.62,29.55,10,9,1,14,5,28,0.01,5,,260
2013-2-28,47,42,37,30,25,21,62,51,40,29.76,29.69,29.63,10,10,8,11,5,18,0.00,5,,269